Главная страница
METAR-TAF:

METAR-TAF

Аэропорты :

Малабо, Экваториальная Гвинея

широта: 03-45-18N, долгота: 08-42-31E, высота над уровнем моря: 23 м

Текущие метеонаблюдения

Эта сводка был подготовлена 2 часа и 52 минут назад, в 05:00 UTC
Ветер 3 Узел от южный-юго-западный
Температура 24°C
Влажность 89%
Давление 1011 hPa
Видимость: 6000 м
небольшая облачность на высоте 1000 фута

METAR: FGSL 140500Z 21003KT 6000 FEW010 24/22 Q1011 NOSIG

Время: 08:52 (07:52 UTC)

Прогноз

Эта сводка был подготовлена 14 часа и 52 минут назад, в 17:00 UTC
Прогноз действительный с 13-го 18 UTC до 14-го 24 UTC
Ветер 6 Узел от западный-юго-западный
Видимость: 6000 м
небольшая облачность на высоте 1200 фута
временами
С 14-го 02 UTC до 14-го 09 UTC
Видимость: 3500 м
дымка
Вероятность 30%
С 14-го 10 UTC до 14-го 18 UTC
Видимость: 4500 м
мгла

TAF: FGSL 131700Z 1318/1424 24006KT 6000 FEW012 TEMPO 1402/1409 3500 BR PROB30 1410/1418 4500 HZ

Метеонаблюдения и прогнозы для более 4000 аэропортов (сводки METAR и TAF).

Имеющиеся станции представлены на карте желтыми и красными точками.

Чтобы увидеть название станции, наведите на нее мышь.

Затем щелкните, чтобы увидеть метеонаблюдения и метеопрогнозы.

Управление картой: чтобы увеличить масштаб, щелкните зеленые кнопки с черным крестиком; чтобы уменьшить масштаб, щелкните зеленую кнопку с тире; для просмотра соседних карт щелкайте зеленые стрелки.


METAR-TAF: